Terminal Aerodrome Forecast
Issued by NWS

Home | Current Version | Previous Version | Text Only | Print | Product List | Glossary On
Versions: 1 2 3 4 5 6 7 8 9 10 11 12 13 14 15 16 17 18 19 20 21 22 23 24 25 26 27 28 29 30 31 32 33 34
000
FTUS41 KBOX 270540
TAFHYA
TAF
KHYA 270540Z 2706/2806 VRB03KT P6SM FEW120
     FM271400 18009KT P6SM BKN120
     FM271700 19010KT P6SM SCT090
     FM280000 21011KT P6SM SCT090 WS020/24040KT=

USA.gov is the U.S. government's official web portal to all federal, state and local government web resources and services.